sensor_id;sensor_type;location;lat;lon;timestamp;temperature;humidity
18868;DHT22;9563;49.240;9.088;2023-04-15T00:00:09;6.10;99.90
18868;DHT22;9563;49.240;9.088;2023-04-15T00:02:36;5.90;99.90
18868;DHT22;9563;49.240;9.088;2023-04-15T00:05:03;5.80;99.90
18868;DHT22;9563;49.240;9.088;2023-04-15T00:07:30;5.90;99.90
18868;DHT22;9563;49.240;9.088;2023-04-15T00:09:57;5.90;99.90
18868;DHT22;9563;49.240;9.088;2023-04-15T00:12:24;6.00;99.90
18868;DHT22;9563;49.240;9.088;2023-04-15T00:14:51;6.10;99.90
18868;DHT22;9563;49.240;9.088;2023-04-15T00:17:20;6.10;99.90
18868;DHT22;9563;49.240;9.088;2023-04-15T00:19:47;6.20;99.90
18868;DHT22;9563;49.240;9.088;2023-04-15T00:22:14;6.30;99.90
18868;DHT22;9563;49.240;9.088;2023-04-15T00:24:41;6.20;99.90
18868;DHT22;9563;49.240;9.088;2023-04-15T00:27:08;6.10;99.90
18868;DHT22;9563;49.240;9.088;2023-04-15T00:29:35;5.90;99.90
18868;DHT22;9563;49.240;9.088;2023-04-15T00:32:02;5.80;99.90
18868;DHT22;9563;49.240;9.088;2023-04-15T00:34:30;5.70;99.90
18868;DHT22;9563;49.240;9.088;2023-04-15T00:36:57;5.60;99.90
18868;DHT22;9563;49.240;9.088;2023-04-15T00:39:25;5.50;99.90
18868;DHT22;9563;49.240;9.088;2023-04-15T00:41:52;5.50;99.90
18868;DHT22;9563;49.240;9.088;2023-04-15T00:44:20;5.70;99.90
18868;DHT22;9563;49.240;9.088;2023-04-15T00:46:47;5.70;99.90
18868;DHT22;9563;49.240;9.088;2023-04-15T00:49:16;5.80;99.90
18868;DHT22;9563;49.240;9.088;2023-04-15T00:51:45;5.90;99.90
18868;DHT22;9563;49.240;9.088;2023-04-15T00:54:12;5.90;99.90
18868;DHT22;9563;49.240;9.088;2023-04-15T00:56:39;5.90;99.90
18868;DHT22;9563;49.240;9.088;2023-04-15T00:59:07;5.90;99.90
18868;DHT22;9563;49.240;9.088;2023-04-15T01:01:35;6.00;99.90
18868;DHT22;9563;49.240;9.088;2023-04-15T01:04:02;6.00;99.90
18868;DHT22;9563;49.240;9.088;2023-04-15T01:06:30;5.90;99.90
18868;DHT22;9563;49.240;9.088;2023-04-15T01:08:58;5.90;99.90
18868;DHT22;9563;49.240;9.088;2023-04-15T01:11:26;5.90;99.90
18868;DHT22;9563;49.240;9.088;2023-04-15T01:13:54;5.90;99.90
18868;DHT22;9563;49.240;9.088;2023-04-15T01:16:22;5.90;99.90
18868;DHT22;9563;49.240;9.088;2023-04-15T01:18:49;5.90;99.90
18868;DHT22;9563;49.240;9.088;2023-04-15T01:21:17;5.70;99.90
18868;DHT22;9563;49.240;9.088;2023-04-15T01:23:46;5.50;99.90
18868;DHT22;9563;49.240;9.088;2023-04-15T01:26:15;5.50;99.90
18868;DHT22;9563;49.240;9.088;2023-04-15T01:28:42;5.40;99.90
18868;DHT22;9563;49.240;9.088;2023-04-15T01:31:10;5.30;99.90
18868;DHT22;9563;49.240;9.088;2023-04-15T01:33:38;5.10;99.90
18868;DHT22;9563;49.240;9.088;2023-04-15T01:36:06;5.10;99.90
18868;DHT22;9563;49.240;9.088;2023-04-15T01:38:34;5.00;99.90
18868;DHT22;9563;49.240;9.088;2023-04-15T01:41:01;4.90;99.90
18868;DHT22;9563;49.240;9.088;2023-04-15T01:43:30;4.90;99.90
18868;DHT22;9563;49.240;9.088;2023-04-15T01:45:56;4.90;99.90
18868;DHT22;9563;49.240;9.088;2023-04-15T01:48:23;5.10;99.90
18868;DHT22;9563;49.240;9.088;2023-04-15T01:50:51;5.20;99.90
18868;DHT22;9563;49.240;9.088;2023-04-15T01:53:18;5.40;99.90
18868;DHT22;9563;49.240;9.088;2023-04-15T01:55:45;5.40;99.90
18868;DHT22;9563;49.240;9.088;2023-04-15T01:58:11;5.40;99.90
18868;DHT22;9563;49.240;9.088;2023-04-15T02:00:39;5.50;99.90
18868;DHT22;9563;49.240;9.088;2023-04-15T02:03:07;5.50;99.90
18868;DHT22;9563;49.240;9.088;2023-04-15T02:05:34;5.50;99.90
18868;DHT22;9563;49.240;9.088;2023-04-15T02:08:01;5.50;99.90
18868;DHT22;9563;49.240;9.088;2023-04-15T02:10:28;5.60;99.90
18868;DHT22;9563;49.240;9.088;2023-04-15T02:12:55;5.50;99.90
18868;DHT22;9563;49.240;9.088;2023-04-15T02:15:21;5.10;99.90
18868;DHT22;9563;49.240;9.088;2023-04-15T02:17:49;4.90;99.90
18868;DHT22;9563;49.240;9.088;2023-04-15T02:20:20;4.60;99.90
18868;DHT22;9563;49.240;9.088;2023-04-15T02:22:47;4.50;99.90
18868;DHT22;9563;49.240;9.088;2023-04-15T02:25:13;4.60;99.90
18868;DHT22;9563;49.240;9.088;2023-04-15T02:27:41;4.70;99.90
18868;DHT22;9563;49.240;9.088;2023-04-15T02:30:09;4.80;99.90
18868;DHT22;9563;49.240;9.088;2023-04-15T02:32:36;4.90;99.90
18868;DHT22;9563;49.240;9.088;2023-04-15T02:35:05;5.00;99.90
18868;DHT22;9563;49.240;9.088;2023-04-15T02:37:34;5.00;99.90
18868;DHT22;9563;49.240;9.088;2023-04-15T02:40:06;4.90;99.90
18868;DHT22;9563;49.240;9.088;2023-04-15T02:42:33;4.80;99.90
18868;DHT22;9563;49.240;9.088;2023-04-15T02:45:00;4.90;99.90
18868;DHT22;9563;49.240;9.088;2023-04-15T02:47:27;4.90;99.90
18868;DHT22;9563;49.240;9.088;2023-04-15T02:49:54;4.90;99.90
18868;DHT22;9563;49.240;9.088;2023-04-15T02:52:24;4.90;99.90
18868;DHT22;9563;49.240;9.088;2023-04-15T02:54:51;5.00;99.90
18868;DHT22;9563;49.240;9.088;2023-04-15T02:57:18;4.90;99.90
18868;DHT22;9563;49.240;9.088;2023-04-15T02:59:45;4.80;99.90
18868;DHT22;9563;49.240;9.088;2023-04-15T03:02:11;4.80;99.90
18868;DHT22;9563;49.240;9.088;2023-04-15T03:04:38;4.70;99.90
18868;DHT22;9563;49.240;9.088;2023-04-15T03:07:06;4.60;99.90
18868;DHT22;9563;49.240;9.088;2023-04-15T03:09:34;4.30;99.90
18868;DHT22;9563;49.240;9.088;2023-04-15T03:12:01;4.40;99.90
18868;DHT22;9563;49.240;9.088;2023-04-15T03:14:27;4.40;99.90
18868;DHT22;9563;49.240;9.088;2023-04-15T03:16:54;4.40;99.90
18868;DHT22;9563;49.240;9.088;2023-04-15T03:19:21;4.30;99.90
18868;DHT22;9563;49.240;9.088;2023-04-15T03:21:47;4.20;99.90
18868;DHT22;9563;49.240;9.088;2023-04-15T03:24:14;4.10;99.90
18868;DHT22;9563;49.240;9.088;2023-04-15T03:26:42;4.00;99.90
18868;DHT22;9563;49.240;9.088;2023-04-15T03:29:09;4.10;99.90
18868;DHT22;9563;49.240;9.088;2023-04-15T03:31:36;4.10;99.90
18868;DHT22;9563;49.240;9.088;2023-04-15T03:34:03;4.10;99.90
18868;DHT22;9563;49.240;9.088;2023-04-15T03:36:30;4.20;99.90
18868;DHT22;9563;49.240;9.088;2023-04-15T03:38:57;4.30;99.90
18868;DHT22;9563;49.240;9.088;2023-04-15T03:41:24;4.30;99.90
18868;DHT22;9563;49.240;9.088;2023-04-15T03:43:52;4.40;99.90
18868;DHT22;9563;49.240;9.088;2023-04-15T03:46:19;4.40;99.90
18868;DHT22;9563;49.240;9.088;2023-04-15T03:48:46;4.50;99.90
18868;DHT22;9563;49.240;9.088;2023-04-15T03:51:12;4.30;99.90
18868;DHT22;9563;49.240;9.088;2023-04-15T03:53:39;4.20;99.90
18868;DHT22;9563;49.240;9.088;2023-04-15T03:56:06;4.20;99.90
18868;DHT22;9563;49.240;9.088;2023-04-15T03:58:33;4.20;99.90
18868;DHT22;9563;49.240;9.088;2023-04-15T04:01:01;4.30;99.90
18868;DHT22;9563;49.240;9.088;2023-04-15T04:03:28;4.40;99.90
18868;DHT22;9563;49.240;9.088;2023-04-15T04:05:55;4.40;99.90
18868;DHT22;9563;49.240;9.088;2023-04-15T04:08:22;4.30;99.90
18868;DHT22;9563;49.240;9.088;2023-04-15T04:10:48;4.30;99.90
18868;DHT22;9563;49.240;9.088;2023-04-15T04:13:15;4.30;99.90
18868;DHT22;9563;49.240;9.088;2023-04-15T04:15:42;4.30;99.90
18868;DHT22;9563;49.240;9.088;2023-04-15T04:18:10;4.30;99.90
18868;DHT22;9563;49.240;9.088;2023-04-15T04:20:37;4.40;99.90
18868;DHT22;9563;49.240;9.088;2023-04-15T04:23:03;4.40;99.90
18868;DHT22;9563;49.240;9.088;2023-04-15T04:25:31;4.40;99.90
18868;DHT22;9563;49.240;9.088;2023-04-15T04:27:57;4.40;99.90
18868;DHT22;9563;49.240;9.088;2023-04-15T04:30:24;4.40;99.90
18868;DHT22;9563;49.240;9.088;2023-04-15T04:36:10;4.50;99.90
18868;DHT22;9563;49.240;9.088;2023-04-15T04:38:37;4.60;99.90
18868;DHT22;9563;49.240;9.088;2023-04-15T04:41:04;4.60;99.90
18868;DHT22;9563;49.240;9.088;2023-04-15T04:43:31;4.60;99.90
18868;DHT22;9563;49.240;9.088;2023-04-15T04:45:57;4.60;99.90
18868;DHT22;9563;49.240;9.088;2023-04-15T04:48:24;4.60;99.90
18868;DHT22;9563;49.240;9.088;2023-04-15T04:50:51;4.60;99.90
18868;DHT22;9563;49.240;9.088;2023-04-15T04:53:19;4.70;99.90
18868;DHT22;9563;49.240;9.088;2023-04-15T04:55:46;4.70;99.90
18868;DHT22;9563;49.240;9.088;2023-04-15T04:58:13;4.70;99.90
18868;DHT22;9563;49.240;9.088;2023-04-15T05:00:40;4.70;99.90
18868;DHT22;9563;49.240;9.088;2023-04-15T05:03:07;4.70;99.90
18868;DHT22;9563;49.240;9.088;2023-04-15T05:05:34;4.60;99.90
18868;DHT22;9563;49.240;9.088;2023-04-15T05:08:01;4.60;99.90
18868;DHT22;9563;49.240;9.088;2023-04-15T05:10:29;4.60;99.90
18868;DHT22;9563;49.240;9.088;2023-04-15T05:12:56;4.60;99.90
18868;DHT22;9563;49.240;9.088;2023-04-15T05:15:23;4.60;99.90
18868;DHT22;9563;49.240;9.088;2023-04-15T05:17:49;4.60;99.90
18868;DHT22;9563;49.240;9.088;2023-04-15T05:20:16;4.60;99.90
18868;DHT22;9563;49.240;9.088;2023-04-15T05:22:43;4.60;99.90
18868;DHT22;9563;49.240;9.088;2023-04-15T05:25:10;4.70;99.90
18868;DHT22;9563;49.240;9.088;2023-04-15T05:27:38;4.70;99.90
18868;DHT22;9563;49.240;9.088;2023-04-15T05:30:06;4.60;99.90
18868;DHT22;9563;49.240;9.088;2023-04-15T05:32:33;4.60;99.90
18868;DHT22;9563;49.240;9.088;2023-04-15T05:35:00;4.60;99.90
18868;DHT22;9563;49.240;9.088;2023-04-15T05:37:27;4.40;99.90
18868;DHT22;9563;49.240;9.088;2023-04-15T05:39:54;4.30;99.90
18868;DHT22;9563;49.240;9.088;2023-04-15T05:42:21;4.10;99.90
18868;DHT22;9563;49.240;9.088;2023-04-15T05:44:49;4.20;99.90
18868;DHT22;9563;49.240;9.088;2023-04-15T05:47:16;4.10;99.90
18868;DHT22;9563;49.240;9.088;2023-04-15T05:49:43;4.10;99.90
18868;DHT22;9563;49.240;9.088;2023-04-15T05:52:09;4.10;99.90
18868;DHT22;9563;49.240;9.088;2023-04-15T05:54:36;4.20;99.90
18868;DHT22;9563;49.240;9.088;2023-04-15T05:57:03;4.30;99.90
18868;DHT22;9563;49.240;9.088;2023-04-15T05:59:30;4.40;99.90
18868;DHT22;9563;49.240;9.088;2023-04-15T06:01:58;4.50;99.90
18868;DHT22;9563;49.240;9.088;2023-04-15T06:04:25;4.60;99.90
18868;DHT22;9563;49.240;9.088;2023-04-15T06:06:52;4.70;99.90
18868;DHT22;9563;49.240;9.088;2023-04-15T06:09:19;4.90;99.90
18868;DHT22;9563;49.240;9.088;2023-04-15T06:11:45;5.00;99.90
18868;DHT22;9563;49.240;9.088;2023-04-15T06:14:12;5.10;99.90
18868;DHT22;9563;49.240;9.088;2023-04-15T06:16:39;5.20;99.90
18868;DHT22;9563;49.240;9.088;2023-04-15T06:19:07;5.30;99.90
18868;DHT22;9563;49.240;9.088;2023-04-15T06:21:34;5.30;99.90
18868;DHT22;9563;49.240;9.088;2023-04-15T06:24:01;5.30;99.90
18868;DHT22;9563;49.240;9.088;2023-04-15T06:26:28;5.30;99.90
18868;DHT22;9563;49.240;9.088;2023-04-15T06:28:55;5.30;99.90
18868;DHT22;9563;49.240;9.088;2023-04-15T06:31:22;5.40;99.90
18868;DHT22;9563;49.240;9.088;2023-04-15T06:33:49;5.50;99.90
18868;DHT22;9563;49.240;9.088;2023-04-15T06:36:17;5.70;99.90
18868;DHT22;9563;49.240;9.088;2023-04-15T06:38:44;5.70;99.90
18868;DHT22;9563;49.240;9.088;2023-04-15T06:41:11;5.70;99.90
18868;DHT22;9563;49.240;9.088;2023-04-15T06:43:38;5.80;99.90
18868;DHT22;9563;49.240;9.088;2023-04-15T06:46:05;5.90;99.90
18868;DHT22;9563;49.240;9.088;2023-04-15T06:48:32;6.10;99.90
18868;DHT22;9563;49.240;9.088;2023-04-15T06:50:58;6.20;99.90
18868;DHT22;9563;49.240;9.088;2023-04-15T06:53:27;6.30;99.90
18868;DHT22;9563;49.240;9.088;2023-04-15T06:55:53;6.40;99.90
18868;DHT22;9563;49.240;9.088;2023-04-15T06:58:20;6.60;99.90
18868;DHT22;9563;49.240;9.088;2023-04-15T07:00:47;6.70;99.90
18868;DHT22;9563;49.240;9.088;2023-04-15T07:03:14;6.80;99.90
18868;DHT22;9563;49.240;9.088;2023-04-15T07:05:41;7.00;99.90
18868;DHT22;9563;49.240;9.088;2023-04-15T07:08:08;7.00;99.90
18868;DHT22;9563;49.240;9.088;2023-04-15T07:10:36;7.20;99.90
18868;DHT22;9563;49.240;9.088;2023-04-15T07:13:03;7.30;99.90
18868;DHT22;9563;49.240;9.088;2023-04-15T07:15:30;7.40;99.90
18868;DHT22;9563;49.240;9.088;2023-04-15T07:17:56;7.50;99.90
18868;DHT22;9563;49.240;9.088;2023-04-15T07:20:23;7.60;99.90
18868;DHT22;9563;49.240;9.088;2023-04-15T07:22:50;7.70;99.90
18868;DHT22;9563;49.240;9.088;2023-04-15T07:25:17;7.90;99.90
18868;DHT22;9563;49.240;9.088;2023-04-15T07:27:45;8.10;99.90
18868;DHT22;9563;49.240;9.088;2023-04-15T07:30:13;8.50;99.90
18868;DHT22;9563;49.240;9.088;2023-04-15T07:32:41;8.80;99.90
18868;DHT22;9563;49.240;9.088;2023-04-15T07:35:08;9.00;99.90
18868;DHT22;9563;49.240;9.088;2023-04-15T07:37:35;9.30;99.90
18868;DHT22;9563;49.240;9.088;2023-04-15T07:40:02;9.20;99.90
18868;DHT22;9563;49.240;9.088;2023-04-15T07:42:31;9.10;99.90
18868;DHT22;9563;49.240;9.088;2023-04-15T07:45:00;9.30;99.90
18868;DHT22;9563;49.240;9.088;2023-04-15T07:47:26;9.40;99.90
18868;DHT22;9563;49.240;9.088;2023-04-15T07:49:53;9.60;99.90
18868;DHT22;9563;49.240;9.088;2023-04-15T07:52:22;9.70;99.90
18868;DHT22;9563;49.240;9.088;2023-04-15T07:54:48;10.00;99.90
18868;DHT22;9563;49.240;9.088;2023-04-15T07:57:15;10.20;99.90
18868;DHT22;9563;49.240;9.088;2023-04-15T07:59:42;10.30;99.90
18868;DHT22;9563;49.240;9.088;2023-04-15T08:02:11;10.50;99.90
18868;DHT22;9563;49.240;9.088;2023-04-15T08:04:38;11.00;99.90
18868;DHT22;9563;49.240;9.088;2023-04-15T08:07:05;11.60;99.90
18868;DHT22;9563;49.240;9.088;2023-04-15T08:09:32;12.00;99.90
18868;DHT22;9563;49.240;9.088;2023-04-15T08:11:58;12.50;99.90
18868;DHT22;9563;49.240;9.088;2023-04-15T08:14:25;13.00;99.90
18868;DHT22;9563;49.240;9.088;2023-04-15T08:16:52;13.40;99.90
18868;DHT22;9563;49.240;9.088;2023-04-15T08:19:20;13.50;99.90
18868;DHT22;9563;49.240;9.088;2023-04-15T08:21:47;13.90;99.90
18868;DHT22;9563;49.240;9.088;2023-04-15T08:24:14;14.20;99.90
18868;DHT22;9563;49.240;9.088;2023-04-15T08:26:41;14.40;99.90
18868;DHT22;9563;49.240;9.088;2023-04-15T08:29:07;14.70;99.90
18868;DHT22;9563;49.240;9.088;2023-04-15T08:31:34;14.70;99.90
18868;DHT22;9563;49.240;9.088;2023-04-15T08:34:01;14.70;99.90
18868;DHT22;9563;49.240;9.088;2023-04-15T08:36:29;14.70;99.90
18868;DHT22;9563;49.240;9.088;2023-04-15T08:38:57;14.50;99.90
18868;DHT22;9563;49.240;9.088;2023-04-15T08:41:26;14.60;99.90
18868;DHT22;9563;49.240;9.088;2023-04-15T08:43:57;14.80;99.90
18868;DHT22;9563;49.240;9.088;2023-04-15T08:46:24;14.50;99.90
18868;DHT22;9563;49.240;9.088;2023-04-15T08:48:51;14.60;99.90
18868;DHT22;9563;49.240;9.088;2023-04-15T08:51:22;14.40;99.90
18868;DHT22;9563;49.240;9.088;2023-04-15T08:53:50;14.20;99.90
18868;DHT22;9563;49.240;9.088;2023-04-15T08:56:18;13.80;99.90
18868;DHT22;9563;49.240;9.088;2023-04-15T08:58:47;13.60;99.90
18868;DHT22;9563;49.240;9.088;2023-04-15T09:01:14;13.60;99.90
18868;DHT22;9563;49.240;9.088;2023-04-15T09:03:41;13.50;99.90
18868;DHT22;9563;49.240;9.088;2023-04-15T09:06:08;13.50;99.90
18868;DHT22;9563;49.240;9.088;2023-04-15T09:08:35;13.60;99.90
18868;DHT22;9563;49.240;9.088;2023-04-15T09:11:03;14.00;99.90
18868;DHT22;9563;49.240;9.088;2023-04-15T09:13:30;14.70;99.90
18868;DHT22;9563;49.240;9.088;2023-04-15T09:15:57;15.60;99.90
18868;DHT22;9563;49.240;9.088;2023-04-15T09:18:28;16.30;99.90
18868;DHT22;9563;49.240;9.088;2023-04-15T09:20:55;17.00;99.90
18868;DHT22;9563;49.240;9.088;2023-04-15T09:23:22;17.10;99.90
18868;DHT22;9563;49.240;9.088;2023-04-15T09:25:49;17.40;99.90
18868;DHT22;9563;49.240;9.088;2023-04-15T09:28:23;17.20;99.90
18868;DHT22;9563;49.240;9.088;2023-04-15T09:30:52;17.00;99.90
18868;DHT22;9563;49.240;9.088;2023-04-15T09:33:20;16.70;99.90
18868;DHT22;9563;49.240;9.088;2023-04-15T09:35:56;16.70;99.90
18868;DHT22;9563;49.240;9.088;2023-04-15T09:38:23;16.60;99.90
18868;DHT22;9563;49.240;9.088;2023-04-15T09:40:50;16.50;99.90
18868;DHT22;9563;49.240;9.088;2023-04-15T09:43:19;16.20;99.90
18868;DHT22;9563;49.240;9.088;2023-04-15T09:45:47;16.00;99.90
18868;DHT22;9563;49.240;9.088;2023-04-15T09:48:16;16.00;99.90
18868;DHT22;9563;49.240;9.088;2023-04-15T09:50:45;16.00;99.90
18868;DHT22;9563;49.240;9.088;2023-04-15T09:53:16;15.80;99.90
18868;DHT22;9563;49.240;9.088;2023-04-15T09:55:45;15.70;99.90
18868;DHT22;9563;49.240;9.088;2023-04-15T09:58:18;15.80;99.90
18868;DHT22;9563;49.240;9.088;2023-04-15T10:00:46;16.10;99.90
18868;DHT22;9563;49.240;9.088;2023-04-15T10:03:18;16.30;99.90
18868;DHT22;9563;49.240;9.088;2023-04-15T10:05:46;16.60;99.90
18868;DHT22;9563;49.240;9.088;2023-04-15T10:08:15;16.70;99.90
18868;DHT22;9563;49.240;9.088;2023-04-15T10:10:44;16.50;99.90
18868;DHT22;9563;49.240;9.088;2023-04-15T10:13:12;16.20;99.90
18868;DHT22;9563;49.240;9.088;2023-04-15T10:15:42;16.50;99.90
18868;DHT22;9563;49.240;9.088;2023-04-15T10:18:10;16.50;99.90
18868;DHT22;9563;49.240;9.088;2023-04-15T10:20:39;16.50;99.90
18868;DHT22;9563;49.240;9.088;2023-04-15T10:23:07;16.60;99.90
18868;DHT22;9563;49.240;9.088;2023-04-15T10:25:35;16.50;99.90
18868;DHT22;9563;49.240;9.088;2023-04-15T10:28:03;16.60;99.90
18868;DHT22;9563;49.240;9.088;2023-04-15T10:30:31;16.80;99.10
18868;DHT22;9563;49.240;9.088;2023-04-15T10:33:00;16.90;99.90
18868;DHT22;9563;49.240;9.088;2023-04-15T10:35:28;17.10;99.90
18868;DHT22;9563;49.240;9.088;2023-04-15T10:37:56;17.30;99.90
18868;DHT22;9563;49.240;9.088;2023-04-15T10:40:27;17.10;99.50
18868;DHT22;9563;49.240;9.088;2023-04-15T10:42:57;17.00;97.10
18868;DHT22;9563;49.240;9.088;2023-04-15T10:45:30;17.10;98.70
18868;DHT22;9563;49.240;9.088;2023-04-15T10:48:02;17.20;98.10
18868;DHT22;9563;49.240;9.088;2023-04-15T10:50:30;17.20;99.30
18868;DHT22;9563;49.240;9.088;2023-04-15T10:52:58;16.90;98.00
18868;DHT22;9563;49.240;9.088;2023-04-15T10:55:25;16.70;97.60
18868;DHT22;9563;49.240;9.088;2023-04-15T10:57:55;16.50;97.90
18868;DHT22;9563;49.240;9.088;2023-04-15T11:00:24;16.00;98.10
18868;DHT22;9563;49.240;9.088;2023-04-15T11:02:53;15.80;99.80
18868;DHT22;9563;49.240;9.088;2023-04-15T11:07:58;15.30;99.90
18868;DHT22;9563;49.240;9.088;2023-04-15T11:10:52;15.20;99.90
18868;DHT22;9563;49.240;9.088;2023-04-15T11:13:21;15.10;99.90
18868;DHT22;9563;49.240;9.088;2023-04-15T11:15:54;14.90;99.90
18868;DHT22;9563;49.240;9.088;2023-04-15T11:18:23;14.90;99.90
18868;DHT22;9563;49.240;9.088;2023-04-15T11:20:53;14.70;99.90
18868;DHT22;9563;49.240;9.088;2023-04-15T11:23:28;14.50;99.90
18868;DHT22;9563;49.240;9.088;2023-04-15T11:25:55;14.40;99.90
18868;DHT22;9563;49.240;9.088;2023-04-15T11:28:25;14.40;99.90
18868;DHT22;9563;49.240;9.088;2023-04-15T11:30:52;14.30;99.90
18868;DHT22;9563;49.240;9.088;2023-04-15T11:33:20;14.50;99.90
18868;DHT22;9563;49.240;9.088;2023-04-15T11:35:48;14.70;99.90
18868;DHT22;9563;49.240;9.088;2023-04-15T11:38:16;15.00;99.90
18868;DHT22;9563;49.240;9.088;2023-04-15T11:40:44;15.10;99.30
18868;DHT22;9563;49.240;9.088;2023-04-15T11:43:12;15.20;92.80
18868;DHT22;9563;49.240;9.088;2023-04-15T11:45:48;15.10;87.80
18868;DHT22;9563;49.240;9.088;2023-04-15T11:48:16;14.90;89.20
18868;DHT22;9563;49.240;9.088;2023-04-15T11:50:43;14.90;91.10
18868;DHT22;9563;49.240;9.088;2023-04-15T11:53:11;14.80;91.90
18868;DHT22;9563;49.240;9.088;2023-04-15T11:55:45;14.90;93.00
18868;DHT22;9563;49.240;9.088;2023-04-15T11:58:13;15.00;91.40
18868;DHT22;9563;49.240;9.088;2023-04-15T12:00:45;15.10;93.30
18868;DHT22;9563;49.240;9.088;2023-04-15T12:03:13;15.10;94.20
18868;DHT22;9563;49.240;9.088;2023-04-15T12:06:04;14.90;93.80
18868;DHT22;9563;49.240;9.088;2023-04-15T12:08:51;14.60;97.30
18868;DHT22;9563;49.240;9.088;2023-04-15T12:11:20;14.50;97.20
18868;DHT22;9563;49.240;9.088;2023-04-15T12:13:48;14.50;96.70
18868;DHT22;9563;49.240;9.088;2023-04-15T12:16:16;14.40;96.90
18868;DHT22;9563;49.240;9.088;2023-04-15T12:18:44;14.20;97.00
18868;DHT22;9563;49.240;9.088;2023-04-15T12:21:12;14.00;94.70
18868;DHT22;9563;49.240;9.088;2023-04-15T12:23:39;13.90;95.20
18868;DHT22;9563;49.240;9.088;2023-04-15T12:26:13;13.70;95.20
18868;DHT22;9563;49.240;9.088;2023-04-15T12:28:41;13.60;95.90
18868;DHT22;9563;49.240;9.088;2023-04-15T12:31:08;13.70;96.00
18868;DHT22;9563;49.240;9.088;2023-04-15T12:33:35;13.60;96.80
18868;DHT22;9563;49.240;9.088;2023-04-15T12:36:02;13.50;96.00
18868;DHT22;9563;49.240;9.088;2023-04-15T12:38:29;13.50;96.30
18868;DHT22;9563;49.240;9.088;2023-04-15T12:40:57;13.20;96.40
18868;DHT22;9563;49.240;9.088;2023-04-15T12:43:24;13.10;97.40
18868;DHT22;9563;49.240;9.088;2023-04-15T12:45:53;13.00;98.70
18868;DHT22;9563;49.240;9.088;2023-04-15T12:48:19;13.00;98.70
18868;DHT22;9563;49.240;9.088;2023-04-15T12:50:46;12.90;98.70
18868;DHT22;9563;49.240;9.088;2023-04-15T12:53:13;12.90;99.70
18868;DHT22;9563;49.240;9.088;2023-04-15T12:55:40;12.90;99.90
18868;DHT22;9563;49.240;9.088;2023-04-15T12:58:07;12.80;99.90
18868;DHT22;9563;49.240;9.088;2023-04-15T13:00:34;12.80;99.90
18868;DHT22;9563;49.240;9.088;2023-04-15T13:03:02;12.70;99.90
18868;DHT22;9563;49.240;9.088;2023-04-15T13:05:29;12.70;99.90
18868;DHT22;9563;49.240;9.088;2023-04-15T13:07:56;12.70;99.90
18868;DHT22;9563;49.240;9.088;2023-04-15T13:10:22;12.80;99.90
18868;DHT22;9563;49.240;9.088;2023-04-15T13:12:51;12.80;99.90
18868;DHT22;9563;49.240;9.088;2023-04-15T13:15:18;12.80;99.90
18868;DHT22;9563;49.240;9.088;2023-04-15T13:17:46;12.80;99.90
18868;DHT22;9563;49.240;9.088;2023-04-15T13:20:14;12.80;99.90
18868;DHT22;9563;49.240;9.088;2023-04-15T13:22:41;12.90;99.90
18868;DHT22;9563;49.240;9.088;2023-04-15T13:25:09;12.90;99.90
18868;DHT22;9563;49.240;9.088;2023-04-15T13:27:36;12.80;99.90
18868;DHT22;9563;49.240;9.088;2023-04-15T13:30:05;12.80;99.90
18868;DHT22;9563;49.240;9.088;2023-04-15T13:32:32;12.70;99.90
18868;DHT22;9563;49.240;9.088;2023-04-15T13:35:00;12.70;99.90
18868;DHT22;9563;49.240;9.088;2023-04-15T13:37:29;12.80;99.90
18868;DHT22;9563;49.240;9.088;2023-04-15T13:39:56;12.80;99.90
18868;DHT22;9563;49.240;9.088;2023-04-15T13:42:23;12.80;99.90
18868;DHT22;9563;49.240;9.088;2023-04-15T13:44:50;12.80;99.90
18868;DHT22;9563;49.240;9.088;2023-04-15T13:47:18;12.70;99.90
18868;DHT22;9563;49.240;9.088;2023-04-15T13:49:45;12.70;99.90
18868;DHT22;9563;49.240;9.088;2023-04-15T13:52:13;12.60;99.90
18868;DHT22;9563;49.240;9.088;2023-04-15T13:54:41;12.60;99.90
18868;DHT22;9563;49.240;9.088;2023-04-15T13:57:08;12.50;99.90
18868;DHT22;9563;49.240;9.088;2023-04-15T13:59:34;12.50;99.90
18868;DHT22;9563;49.240;9.088;2023-04-15T14:02:01;12.40;99.90
18868;DHT22;9563;49.240;9.088;2023-04-15T14:04:30;12.40;99.90
18868;DHT22;9563;49.240;9.088;2023-04-15T14:06:57;12.40;99.90
18868;DHT22;9563;49.240;9.088;2023-04-15T14:09:24;12.50;99.90
18868;DHT22;9563;49.240;9.088;2023-04-15T14:11:52;12.60;99.90
18868;DHT22;9563;49.240;9.088;2023-04-15T14:14:19;12.50;99.90
18868;DHT22;9563;49.240;9.088;2023-04-15T14:16:45;12.60;99.90
18868;DHT22;9563;49.240;9.088;2023-04-15T14:19:13;12.60;99.90
18868;DHT22;9563;49.240;9.088;2023-04-15T14:21:40;12.60;99.90
18868;DHT22;9563;49.240;9.088;2023-04-15T14:24:07;12.50;99.90
18868;DHT22;9563;49.240;9.088;2023-04-15T14:26:34;12.50;99.90
18868;DHT22;9563;49.240;9.088;2023-04-15T14:29:02;12.40;99.90
18868;DHT22;9563;49.240;9.088;2023-04-15T14:31:29;12.40;99.90
18868;DHT22;9563;49.240;9.088;2023-04-15T14:33:56;12.40;99.90
18868;DHT22;9563;49.240;9.088;2023-04-15T14:36:22;12.30;99.90
18868;DHT22;9563;49.240;9.088;2023-04-15T14:38:49;12.30;99.90
18868;DHT22;9563;49.240;9.088;2023-04-15T14:41:16;12.30;99.90
18868;DHT22;9563;49.240;9.088;2023-04-15T14:43:43;12.30;99.90
18868;DHT22;9563;49.240;9.088;2023-04-15T14:46:11;12.20;99.90
18868;DHT22;9563;49.240;9.088;2023-04-15T14:48:38;12.10;99.90
18868;DHT22;9563;49.240;9.088;2023-04-15T14:51:05;11.90;99.90
18868;DHT22;9563;49.240;9.088;2023-04-15T14:53:32;11.90;99.90
18868;DHT22;9563;49.240;9.088;2023-04-15T14:55:59;11.80;99.90
18868;DHT22;9563;49.240;9.088;2023-04-15T14:58:26;11.70;99.90
18868;DHT22;9563;49.240;9.088;2023-04-15T15:00:53;11.70;99.90
18868;DHT22;9563;49.240;9.088;2023-04-15T15:03:22;11.60;99.90
18868;DHT22;9563;49.240;9.088;2023-04-15T15:05:48;11.50;99.90
18868;DHT22;9563;49.240;9.088;2023-04-15T15:08:15;11.50;99.90
18868;DHT22;9563;49.240;9.088;2023-04-15T15:10:42;11.40;99.90
18868;DHT22;9563;49.240;9.088;2023-04-15T15:13:10;11.30;99.90
18868;DHT22;9563;49.240;9.088;2023-04-15T15:15:37;11.30;99.90
18868;DHT22;9563;49.240;9.088;2023-04-15T15:18:04;11.30;99.90
18868;DHT22;9563;49.240;9.088;2023-04-15T15:20:33;11.20;99.90
18868;DHT22;9563;49.240;9.088;2023-04-15T15:23:00;11.20;99.90
18868;DHT22;9563;49.240;9.088;2023-04-15T15:25:27;11.20;99.90
18868;DHT22;9563;49.240;9.088;2023-04-15T15:27:55;11.20;99.90
18868;DHT22;9563;49.240;9.088;2023-04-15T15:30:22;11.30;99.90
18868;DHT22;9563;49.240;9.088;2023-04-15T15:32:50;11.20;99.90
18868;DHT22;9563;49.240;9.088;2023-04-15T15:35:17;11.20;99.90
18868;DHT22;9563;49.240;9.088;2023-04-15T15:37:45;11.20;99.90
18868;DHT22;9563;49.240;9.088;2023-04-15T15:40:12;11.30;99.90
18868;DHT22;9563;49.240;9.088;2023-04-15T15:42:39;11.30;99.90
18868;DHT22;9563;49.240;9.088;2023-04-15T15:45:07;11.30;99.90
18868;DHT22;9563;49.240;9.088;2023-04-15T15:47:34;11.20;99.90
18868;DHT22;9563;49.240;9.088;2023-04-15T15:50:01;11.20;99.90
18868;DHT22;9563;49.240;9.088;2023-04-15T15:52:28;11.20;99.90
18868;DHT22;9563;49.240;9.088;2023-04-15T15:54:56;11.20;99.90
18868;DHT22;9563;49.240;9.088;2023-04-15T15:57:23;11.10;99.90
18868;DHT22;9563;49.240;9.088;2023-04-15T15:59:50;11.00;99.90
18868;DHT22;9563;49.240;9.088;2023-04-15T16:02:17;10.90;99.90